Time;durP1;ratioP1;P1;durP2;ratioP2;P2;SDS_P1;SDS_P2;PMS_P1;PMS_P2;Temp;Humidity;BMP_temperature;BMP_pressure;BME280_temperature;BME280_humidity;BME280_pressure;Samples;Min_cycle;Max_cycle;Signal;HPM_P1;HPM_P2
2024/02/28 00:02:12;;;;;;;6.63;4.50;;;20.80;55.00;;;;;;4992537;28;89210;-63
2024/02/28 00:04:40;;;;;;;6.07;4.97;;;20.80;54.80;;;;;;4996152;27;89821;-63
2024/02/28 00:07:06;;;;;;;7.90;5.03;;;20.80;54.90;;;;;;5011464;28;87279;-63
2024/02/28 00:09:32;;;;;;;6.65;4.63;;;20.80;54.80;;;;;;4997856;28;87822;-63
2024/02/28 00:11:59;;;;;;;5.90;4.30;;;20.80;54.80;;;;;;5004047;27;88846;-63
2024/02/28 00:14:25;;;;;;;6.75;4.88;;;20.80;54.60;;;;;;5000145;27;87833;-63
2024/02/28 00:16:51;;;;;;;6.38;4.18;;;20.80;54.80;;;;;;5004190;28;87377;-63
2024/02/28 00:19:18;;;;;;;5.55;4.00;;;20.80;54.60;;;;;;4995276;28;86837;-63
2024/02/28 00:21:44;;;;;;;7.22;4.57;;;20.70;54.70;;;;;;4999721;28;87737;-64
2024/02/28 00:24:10;;;;;;;6.47;4.82;;;20.80;54.70;;;;;;4992076;28;87936;-63
2024/02/28 00:29:02;;;;;;;5.65;4.63;;;20.70;54.80;;;;;;4994745;28;87192;-63
2024/02/28 00:31:27;;;;;;;7.22;4.85;;;20.70;54.90;;;;;;5011306;27;88214;-63
2024/02/28 00:33:54;;;;;;;6.50;5.13;;;20.70;54.80;;;;;;5010491;28;89702;-63
2024/02/28 00:36:20;;;;;;;6.60;3.97;;;20.70;54.70;;;;;;5008675;27;87287;-63
2024/02/28 00:38:46;;;;;;;6.22;4.35;;;20.70;54.60;;;;;;5009814;27;87357;-63
2024/02/28 00:41:11;;;;;;;6.15;4.35;;;20.70;54.70;;;;;;4994970;27;88211;-63
2024/02/28 00:43:37;;;;;;;5.60;4.55;;;20.70;55.30;;;;;;4990167;28;89329;-63
2024/02/28 00:46:03;;;;;;;8.18;5.18;;;20.70;54.70;;;;;;4995625;28;86938;-63
2024/02/28 00:48:29;;;;;;;6.22;4.32;;;20.60;54.60;;;;;;4995044;27;87291;-63
2024/02/28 00:50:56;;;;;;;6.03;4.68;;;20.60;54.60;;;;;;5007306;27;89100;-63
2024/02/28 00:53:23;;;;;;;8.57;5.32;;;20.60;54.50;;;;;;5011013;27;88643;-63
2024/02/28 00:55:51;;;;;;;5.28;4.32;;;20.60;54.50;;;;;;5000692;28;88203;-64
2024/02/28 00:58:17;;;;;;;6.45;4.70;;;20.60;54.60;;;;;;4998855;28;87240;-63
2024/02/28 01:00:43;;;;;;;6.47;4.82;;;20.60;55.00;;;;;;5014091;27;88495;-64
2024/02/28 01:03:10;;;;;;;7.03;4.75;;;20.60;54.90;;;;;;5000983;28;88615;-63
2024/02/28 01:05:36;;;;;;;6.00;4.75;;;20.60;55.00;;;;;;5011110;27;87374;-63
2024/02/28 01:08:02;;;;;;;8.60;5.43;;;20.60;55.00;;;;;;4991223;28;86877;-63
2024/02/28 01:10:28;;;;;;;6.55;4.93;;;20.50;55.00;;;;;;4991439;28;87631;-63
2024/02/28 01:12:55;;;;;;;6.50;4.80;;;20.50;54.90;;;;;;5007867;28;87457;-63
2024/02/28 01:15:20;;;;;;;5.90;4.07;;;20.60;55.00;;;;;;5009130;27;88034;-63
2024/02/28 01:17:47;;;;;;;5.53;4.15;;;20.60;54.90;;;;;;5001447;28;87326;-63
2024/02/28 01:20:13;;;;;;;5.70;4.55;;;20.50;54.90;;;;;;5004221;27;88987;-63
2024/02/28 01:22:39;;;;;;;5.60;4.50;;;20.50;54.90;;;;;;5001932;27;88376;-63
2024/02/28 01:25:06;;;;;;;7.20;5.10;;;20.50;54.80;;;;;;4989459;28;88570;-63
2024/02/28 01:27:32;;;;;;;6.53;4.72;;;20.50;54.80;;;;;;4989857;28;87595;-63
2024/02/28 01:29:58;;;;;;;6.15;4.70;;;20.50;55.00;;;;;;5006424;27;88665;-63
2024/02/28 01:32:25;;;;;;;7.05;5.18;;;20.50;54.90;;;;;;5006922;28;88220;-63
2024/02/28 01:34:50;;;;;;;7.90;4.40;;;20.50;54.90;;;;;;4990600;28;87465;-64
2024/02/28 01:37:17;;;;;;;7.00;4.97;;;20.50;54.90;;;;;;5005229;28;87247;-63
2024/02/28 01:39:43;;;;;;;5.97;4.40;;;20.50;54.70;;;;;;5002814;27;88509;-63
2024/02/28 01:42:09;;;;;;;7.18;5.10;;;20.50;54.90;;;;;;5007917;28;91082;-63
2024/02/28 01:44:43;;;;;;;6.88;4.88;;;20.40;54.80;;;;;;5002990;27;87468;-63
2024/02/28 01:47:10;;;;;;;6.30;4.57;;;20.40;54.90;;;;;;5002691;28;87821;-63
2024/02/28 01:49:36;;;;;;;6.53;4.75;;;20.40;54.80;;;;;;5010062;27;88125;-63
2024/02/28 01:52:03;;;;;;;6.68;4.75;;;20.40;54.90;;;;;;5002668;28;88117;-63
2024/02/28 01:54:30;;;;;;;7.20;4.88;;;20.40;54.80;;;;;;5004363;28;87311;-63
2024/02/28 01:56:56;;;;;;;6.65;4.93;;;20.40;54.90;;;;;;4992210;27;86653;-64
2024/02/28 01:59:24;;;;;;;6.30;4.25;;;20.40;54.70;;;;;;5006612;27;88445;-63
2024/02/28 02:01:50;;;;;;;6.03;4.63;;;20.30;54.60;;;;;;4995915;28;89333;-63
2024/02/28 02:04:16;;;;;;;6.75;4.38;;;20.30;54.80;;;;;;4990036;28;88230;-63
2024/02/28 02:06:44;;;;;;;5.82;4.57;;;20.40;54.80;;;;;;5019953;28;87962;-63
2024/02/28 02:09:11;;;;;;;5.80;4.57;;;20.30;54.70;;;;;;4991042;27;88151;-63
2024/02/28 02:11:38;;;;;;;6.78;5.07;;;20.30;54.70;;;;;;4992568;28;87815;-63
2024/02/28 02:14:05;;;;;;;6.50;4.53;;;20.30;54.60;;;;;;5010994;28;87257;-63
2024/02/28 02:16:30;;;;;;;6.38;4.82;;;20.30;54.70;;;;;;4989501;28;87779;-63
2024/02/28 02:18:56;;;;;;;7.38;5.15;;;20.30;54.70;;;;;;4997904;28;88207;-63
2024/02/28 02:21:37;;;;;;;7.18;4.90;;;20.30;54.80;;;;;;5002511;28;88012;-63
2024/02/28 02:24:03;;;;;;;5.63;4.40;;;20.20;54.70;;;;;;5009428;27;87386;-63
2024/02/28 02:26:29;;;;;;;6.57;4.70;;;20.20;54.70;;;;;;5006751;28;88156;-63
2024/02/28 02:28:55;;;;;;;7.18;4.88;;;20.20;54.60;;;;;;5007701;27;88204;-63
2024/02/28 02:31:21;;;;;;;5.75;4.32;;;20.20;54.70;;;;;;5014522;28;89024;-63
2024/02/28 02:33:48;;;;;;;5.03;4.40;;;20.20;54.60;;;;;;4996687;28;86946;-64
2024/02/28 02:36:13;;;;;;;7.72;4.88;;;20.20;54.60;;;;;;5012773;28;87294;-63
2024/02/28 02:38:39;;;;;;;5.93;4.57;;;20.20;54.50;;;;;;5032151;27;86986;-63
2024/02/28 02:41:04;;;;;;;6.38;4.50;;;20.20;54.40;;;;;;5010797;27;87957;-63
2024/02/28 02:43:31;;;;;;;5.00;4.07;;;20.20;54.60;;;;;;5007741;27;87378;-63
2024/02/28 02:45:57;;;;;;;6.70;5.05;;;20.20;54.60;;;;;;5011750;28;87085;-63
2024/02/28 02:48:24;;;;;;;7.13;4.68;;;20.20;54.60;;;;;;5011093;28;88750;-63
2024/02/28 02:50:50;;;;;;;6.13;4.22;;;20.20;54.50;;;;;;5027013;27;87760;-63
2024/02/28 02:53:16;;;;;;;6.75;4.93;;;20.10;54.40;;;;;;5011602;28;88287;-63
2024/02/28 02:55:41;;;;;;;5.57;4.32;;;20.10;54.30;;;;;;5025692;27;87392;-63
2024/02/28 02:58:07;;;;;;;6.43;4.78;;;20.20;54.50;;;;;;5028677;28;87955;-63
2024/02/28 03:00:33;;;;;;;5.90;4.43;;;20.10;54.50;;;;;;5025598;27;90087;-63
2024/02/28 03:03:00;;;;;;;6.70;4.80;;;20.10;54.50;;;;;;5009534;27;87340;-63
2024/02/28 03:05:26;;;;;;;6.88;4.85;;;20.10;54.50;;;;;;5011985;28;87614;-63
2024/02/28 03:07:52;;;;;;;7.15;4.43;;;20.10;54.60;;;;;;5028745;27;89645;-64
2024/02/28 03:10:17;;;;;;;5.97;4.18;;;20.10;54.70;;;;;;5029132;28;88393;-63
2024/02/28 03:12:43;;;;;;;6.70;4.78;;;20.10;54.60;;;;;;5013035;27;87537;-63
2024/02/28 03:15:09;;;;;;;6.72;4.43;;;20.10;54.50;;;;;;5030102;27;87915;-63
2024/02/28 03:17:35;;;;;;;6.40;4.43;;;20.10;54.40;;;;;;5023244;27;88926;-63
2024/02/28 03:20:00;;;;;;;5.85;4.38;;;20.10;54.30;;;;;;5015120;28;89284;-63
2024/02/28 03:22:26;;;;;;;5.80;4.50;;;20.10;54.30;;;;;;5025944;27;87283;-64
2024/02/28 03:24:51;;;;;;;5.82;4.43;;;20.10;54.40;;;;;;5030302;28;87726;-63
2024/02/28 03:27:17;;;;;;;7.65;4.95;;;20.10;54.50;;;;;;5025564;27;88426;-63
2024/02/28 03:29:43;;;;;;;5.30;4.28;;;20.00;54.50;;;;;;5032699;27;87245;-63
2024/02/28 03:35:32;;;;;;;5.90;4.57;;;20.00;54.50;;;;;;5021830;28;87577;-62
2024/02/28 03:37:57;;;;;;;6.68;4.80;;;20.00;54.40;;;;;;5026425;27;87531;-63
2024/02/28 03:40:23;;;;;;;6.18;4.35;;;20.00;54.30;;;;;;5033586;27;87792;-63
2024/02/28 03:42:48;;;;;;;6.00;4.40;;;20.00;54.30;;;;;;5033721;28;88225;-63
2024/02/28 03:45:14;;;;;;;6.82;5.07;;;20.00;54.30;;;;;;5020561;27;87309;-63
2024/02/28 03:47:41;;;;;;;6.82;4.80;;;20.00;54.30;;;;;;5021270;28;88152;-63
2024/02/28 03:50:08;;;;;;;6.28;4.72;;;20.00;54.30;;;;;;5025028;28;87664;-63
2024/02/28 03:52:33;;;;;;;6.63;5.18;;;20.00;54.20;;;;;;5024597;28;87369;-63
2024/02/28 03:55:00;;;;;;;6.07;4.55;;;19.90;54.40;;;;;;5014161;28;87432;-63
2024/02/28 03:57:25;;;;;;;5.88;4.50;;;19.90;54.30;;;;;;5017765;27;88073;-63
2024/02/28 03:59:53;;;;;;;6.05;4.45;;;19.90;54.20;;;;;;5032688;27;87349;-63
2024/02/28 04:02:20;;;;;;;5.63;4.05;;;19.90;54.30;;;;;;5031534;27;87578;-63
2024/02/28 04:04:47;;;;;;;4.97;3.97;;;19.90;54.40;;;;;;5030214;27;87086;-63
2024/02/28 04:07:12;;;;;;;6.22;3.92;;;19.90;54.40;;;;;;5018690;28;88942;-63
2024/02/28 04:09:38;;;;;;;6.75;4.63;;;19.90;54.40;;;;;;5030731;27;88080;-63
2024/02/28 04:12:05;;;;;;;5.55;4.10;;;19.90;54.30;;;;;;5023356;27;87142;-63
2024/02/28 04:14:31;;;;;;;7.15;4.88;;;19.90;54.20;;;;;;5011501;27;87935;-63
2024/02/28 04:16:57;;;;;;;6.10;4.40;;;19.90;54.30;;;;;;5012197;27;87771;-63
2024/02/28 04:19:23;;;;;;;5.45;4.57;;;19.90;54.30;;;;;;5018632;27;87658;-63
2024/02/28 04:21:49;;;;;;;6.28;4.78;;;19.90;54.40;;;;;;5033153;28;87425;-63
2024/02/28 04:24:16;;;;;;;7.18;4.82;;;19.90;54.20;;;;;;5022040;27;86244;-63
2024/02/28 04:26:42;;;;;;;5.97;4.05;;;19.80;54.20;;;;;;5009903;28;89713;-63
2024/02/28 04:29:13;;;;;;;6.55;4.20;;;19.80;54.20;;;;;;5020169;27;87664;-63
2024/02/28 04:31:40;;;;;;;7.28;4.35;;;19.80;54.30;;;;;;5018739;27;88477;-63
2024/02/28 04:34:06;;;;;;;5.88;4.28;;;19.80;54.10;;;;;;5013186;28;87062;-63
2024/02/28 04:36:32;;;;;;;4.10;3.67;;;19.80;54.00;;;;;;5025654;27;90355;-63
2024/02/28 04:38:58;;;;;;;8.60;5.25;;;19.80;53.90;;;;;;5030506;27;87459;-63
2024/02/28 04:41:25;;;;;;;6.22;4.65;;;19.80;54.00;;;;;;5030775;27;87458;-63
2024/02/28 04:43:53;;;;;;;5.57;3.58;;;19.80;54.10;;;;;;5016257;28;87421;-63
2024/02/28 04:46:20;;;;;;;6.20;4.40;;;19.80;54.00;;;;;;5023980;28;88993;-63
2024/02/28 04:48:47;;;;;;;5.95;4.32;;;19.80;54.10;;;;;;5008024;27;90165;-63
2024/02/28 04:51:18;;;;;;;5.53;4.28;;;19.70;54.00;;;;;;5030492;27;87237;-63
2024/02/28 04:53:44;;;;;;;6.18;4.40;;;19.80;54.00;;;;;;5018463;28;87166;-63
2024/02/28 04:56:10;;;;;;;5.40;4.00;;;19.70;53.90;;;;;;5029500;28;90149;-63
2024/02/28 04:58:36;;;;;;;6.22;4.22;;;19.70;53.90;;;;;;5018371;27;87799;-63
2024/02/28 05:01:03;;;;;;;6.28;4.35;;;19.80;53.90;;;;;;5013073;28;87194;-63
2024/02/28 05:03:28;;;;;;;5.20;4.13;;;19.70;53.80;;;;;;5028561;28;87793;-63
2024/02/28 05:05:54;;;;;;;5.75;4.47;;;19.70;53.90;;;;;;5031096;27;87658;-63
2024/02/28 05:08:20;;;;;;;8.18;4.57;;;19.70;53.90;;;;;;5025754;27;89208;-63
2024/02/28 05:10:47;;;;;;;6.18;4.10;;;19.70;53.90;;;;;;5016329;28;87627;-63
2024/02/28 05:13:13;;;;;;;5.57;4.35;;;19.70;54.00;;;;;;5014030;28;86711;-63
2024/02/28 05:15:39;;;;;;;6.18;4.68;;;19.60;53.90;;;;;;5023130;27;88289;-63
2024/02/28 05:18:04;;;;;;;5.63;4.25;;;19.70;54.00;;;;;;5017289;27;87059;-63
2024/02/28 05:20:30;;;;;;;5.82;4.32;;;19.70;53.90;;;;;;5012548;28;88544;-63
2024/02/28 05:22:56;;;;;;;6.18;4.47;;;19.70;54.00;;;;;;5019662;27;88126;-63
2024/02/28 05:25:23;;;;;;;6.35;4.35;;;19.60;53.90;;;;;;4997603;28;88727;-63
2024/02/28 05:27:48;;;;;;;6.28;5.00;;;19.70;53.80;;;;;;5024784;28;93088;-63
2024/02/28 05:30:14;;;;;;;5.45;3.90;;;19.60;53.80;;;;;;5010579;28;87526;-63
2024/02/28 05:32:40;;;;;;;5.18;3.92;;;19.60;53.70;;;;;;5019521;28;87269;-63
2024/02/28 05:35:06;;;;;;;6.60;4.55;;;19.60;53.70;;;;;;5030499;27;86936;-63
2024/02/28 05:37:32;;;;;;;6.15;4.40;;;19.60;53.80;;;;;;5015861;27;87618;-63
2024/02/28 05:39:59;;;;;;;5.63;4.13;;;19.60;53.70;;;;;;5026057;28;87471;-63
2024/02/28 05:42:25;;;;;;;5.90;4.63;;;19.60;53.70;;;;;;5011359;27;87423;-63
2024/02/28 05:44:51;;;;;;;5.50;3.80;;;19.60;53.80;;;;;;5026407;27;90003;-63
2024/02/28 05:47:20;;;;;;;5.65;3.97;;;19.60;53.70;;;;;;5015907;27;88192;-63
2024/02/28 05:49:46;;;;;;;5.15;4.35;;;19.60;53.80;;;;;;5019128;27;87609;-63
2024/02/28 05:52:13;;;;;;;4.20;3.28;;;19.50;53.80;;;;;;5021523;27;87549;-63
2024/02/28 05:54:39;;;;;;;5.50;3.97;;;19.50;53.60;;;;;;5015666;28;88601;-64
2024/02/28 05:57:06;;;;;;;6.20;3.88;;;19.50;53.70;;;;;;5003926;28;88406;-63
2024/02/28 05:59:33;;;;;;;5.72;4.30;;;19.50;53.70;;;;;;5016047;28;87465;-63
2024/02/28 06:02:00;;;;;;;5.38;4.03;;;19.50;53.60;;;;;;5015859;27;86628;-63
2024/02/28 06:04:29;;;;;;;7.35;5.00;;;19.50;53.70;;;;;;5024695;27;89027;-63
2024/02/28 06:06:57;;;;;;;4.88;3.92;;;19.50;53.80;;;;;;5030670;28;88129;-64
2024/02/28 06:09:24;;;;;;;5.15;3.80;;;19.50;53.50;;;;;;5010591;28;88292;-63
2024/02/28 06:11:51;;;;;;;5.60;4.45;;;19.50;53.70;;;;;;5019820;27;87794;-63
2024/02/28 06:14:21;;;;;;;5.85;4.35;;;19.50;53.80;;;;;;5019805;27;89414;-63
2024/02/28 06:16:50;;;;;;;6.28;4.40;;;19.50;53.80;;;;;;5015848;27;87810;-63
2024/02/28 06:19:16;;;;;;;5.35;3.72;;;19.50;53.90;;;;;;5034969;27;87439;-63
2024/02/28 06:21:43;;;;;;;4.53;3.78;;;19.50;53.80;;;;;;5031343;27;87108;-63
2024/02/28 06:24:08;;;;;;;5.47;4.15;;;19.50;53.70;;;;;;5028280;27;88585;-63
2024/02/28 06:26:35;;;;;;;5.45;3.75;;;19.40;53.60;;;;;;5020857;28;87761;-63
2024/02/28 06:29:04;;;;;;;5.93;4.38;;;19.40;53.60;;;;;;5032289;27;87119;-63
2024/02/28 06:31:31;;;;;;;6.38;4.30;;;19.40;53.70;;;;;;5032754;27;87598;-63
2024/02/28 06:33:58;;;;;;;5.82;4.40;;;19.40;53.60;;;;;;5029523;27;90068;-63
2024/02/28 06:36:24;;;;;;;5.57;4.07;;;19.40;53.60;;;;;;5025745;27;89101;-63
2024/02/28 06:38:50;;;;;;;5.50;4.18;;;19.40;53.70;;;;;;5033316;27;86906;-63
2024/02/28 06:41:16;;;;;;;5.38;4.30;;;19.40;53.80;;;;;;5032008;27;87406;-64
2024/02/28 06:43:46;;;;;;;4.88;3.45;;;19.50;53.00;;;;;;5017197;27;88811;-60
2024/02/28 06:46:14;;;;;;;5.55;3.80;;;19.50;52.50;;;;;;5015120;28;89267;-63
2024/02/28 06:48:40;;;;;;;4.50;3.53;;;19.50;53.10;;;;;;5032032;27;87592;-63
2024/02/28 06:51:05;;;;;;;4.35;3.45;;;19.50;52.70;;;;;;5033707;27;86794;-64
2024/02/28 06:53:31;;;;;;;5.07;3.92;;;19.50;52.90;;;;;;5024530;27;88172;-64
2024/02/28 06:55:57;;;;;;;6.80;4.25;;;19.60;53.30;;;;;;5026720;27;88603;-64
2024/02/28 06:58:24;;;;;;;5.65;3.92;;;19.70;54.30;;;;;;5030288;27;88943;-64
2024/02/28 07:00:51;;;;;;;7.93;4.25;;;19.80;53.80;;;;;;5019063;27;87608;-64
2024/02/28 07:03:17;;;;;;;6.35;4.35;;;19.90;54.10;;;;;;5027269;27;88196;-64
2024/02/28 07:05:44;;;;;;;6.63;4.45;;;20.10;52.90;;;;;;5008466;27;88744;-64
2024/02/28 07:08:11;;;;;;;5.07;3.50;;;20.40;53.00;;;;;;5006869;28;87644;-64
2024/02/28 07:10:37;;;;;;;4.30;3.55;;;20.70;52.40;;;;;;5030320;27;87811;-64
2024/02/28 07:13:02;;;;;;;6.10;4.55;;;21.00;51.80;;;;;;5028621;28;88554;-65
2024/02/28 07:15:28;;;;;;;3.83;3.03;;;21.30;51.40;;;;;;5023531;27;88208;-63
2024/02/28 07:17:56;;;;;;;4.00;3.47;;;21.60;50.90;;;;;;5031674;27;87442;-64
2024/02/28 07:20:22;;;;;;;4.47;3.28;;;21.90;50.50;;;;;;5017616;27;89240;-64
2024/02/28 07:22:48;;;;;;;4.88;3.58;;;22.10;50.00;;;;;;5010748;27;88978;-63
2024/02/28 07:25:15;;;;;;;5.63;3.60;;;22.20;49.60;;;;;;5001529;28;88864;-64
2024/02/28 07:27:44;;;;;;;4.07;3.25;;;22.40;49.20;;;;;;5025231;27;87082;-64
2024/02/28 07:30:10;;;;;;;4.70;3.42;;;22.50;48.80;;;;;;5010458;28;87639;-65
2024/02/28 07:32:36;;;;;;;4.65;3.35;;;22.60;49.30;;;;;;5010605;28;88923;-64
2024/02/28 07:35:02;;;;;;;4.45;3.17;;;22.60;48.50;;;;;;5016886;27;89130;-64
2024/02/28 07:37:30;;;;;;;3.70;3.25;;;22.70;48.50;;;;;;5008793;27;87202;-64
2024/02/28 07:39:56;;;;;;;6.40;3.35;;;22.70;48.40;;;;;;5011760;28;87530;-64
2024/02/28 07:42:21;;;;;;;4.03;3.08;;;22.80;48.50;;;;;;5020113;27;88105;-63
2024/02/28 07:44:47;;;;;;;5.35;3.70;;;22.80;48.60;;;;;;5013364;27;88265;-63
2024/02/28 07:47:14;;;;;;;4.10;3.22;;;22.70;48.60;;;;;;5009672;27;88312;-64
2024/02/28 07:49:41;;;;;;;3.22;2.78;;;22.70;48.80;;;;;;5012271;27;87399;-64
2024/02/28 07:52:07;;;;;;;5.38;2.95;;;22.70;49.40;;;;;;5017394;28;88932;-63
2024/02/28 07:54:33;;;;;;;5.38;2.63;;;22.70;48.90;;;;;;5023323;27;87900;-64
2024/02/28 07:56:59;;;;;;;7.75;3.45;;;22.70;47.70;;;;;;5016374;27;89272;-63
2024/02/28 07:59:25;;;;;;;4.53;2.97;;;22.70;48.40;;;;;;5014056;28;88406;-63
2024/02/28 08:01:52;;;;;;;3.95;2.95;;;22.50;48.30;;;;;;5018980;27;88071;-64
2024/02/28 08:04:18;;;;;;;5.07;3.08;;;22.10;48.90;;;;;;5029088;28;88623;-63
2024/02/28 08:06:44;;;;;;;4.32;2.67;;;21.80;50.20;;;;;;5022703;27;87261;-63
2024/02/28 08:09:09;;;;;;;9.50;4.00;;;21.50;50.40;;;;;;5015208;28;87355;-63
2024/02/28 08:11:35;;;;;;;8.10;3.38;;;21.80;50.40;;;;;;5017782;27;88251;-63
2024/02/28 08:14:01;;;;;;;12.07;4.82;;;21.90;50.50;;;;;;5018136;28;88666;-63
2024/02/28 08:16:26;;;;;;;11.15;3.97;;;22.00;50.40;;;;;;5017500;27;87589;-63
2024/02/28 08:18:54;;;;;;;15.45;4.30;;;22.20;50.10;;;;;;5020999;28;87537;-63
2024/02/28 08:21:20;;;;;;;9.75;4.53;;;22.20;49.70;;;;;;5025629;27;88317;-65
2024/02/28 08:23:47;;;;;;;13.13;4.55;;;22.10;49.70;;;;;;5010407;28;90280;-63
2024/02/28 08:26:13;;;;;;;13.93;4.25;;;21.80;49.90;;;;;;5028406;27;87806;-63
2024/02/28 08:28:39;;;;;;;15.32;4.93;;;21.60;50.40;;;;;;5020012;27;86997;-63
2024/02/28 08:31:05;;;;;;;14.10;4.80;;;21.40;50.00;;;;;;5011609;28;88039;-63
2024/02/28 08:33:30;;;;;;;16.77;6.07;;;21.20;50.60;;;;;;5019864;28;87687;-63
2024/02/28 08:35:57;;;;;;;14.25;4.63;;;21.10;50.90;;;;;;5027686;27;88383;-63
2024/02/28 08:38:22;;;;;;;17.38;5.65;;;21.00;51.30;;;;;;5026674;27;87473;-63
2024/02/28 08:40:48;;;;;;;17.30;5.55;;;21.00;51.60;;;;;;5023531;27;88865;-63
2024/02/28 08:43:15;;;;;;;11.60;3.95;;;21.00;52.00;;;;;;5032056;27;88079;-64
2024/02/28 08:45:41;;;;;;;14.70;4.70;;;21.00;52.30;;;;;;5024971;27;87413;-63
2024/02/28 08:48:08;;;;;;;11.35;5.38;;;21.00;52.20;;;;;;5016395;28;87634;-63
2024/02/28 08:50:34;;;;;;;20.48;5.90;;;21.10;52.20;;;;;;5013417;27;88593;-63
2024/02/28 08:53:00;;;;;;;12.00;4.40;;;21.20;52.10;;;;;;5009736;28;88102;-64
2024/02/28 08:55:25;;;;;;;14.50;5.28;;;21.20;52.00;;;;;;5009630;27;87222;-63
2024/02/28 08:57:51;;;;;;;10.98;4.70;;;21.30;51.90;;;;;;5022133;28;87805;-63
2024/02/28 09:00:18;;;;;;;13.18;4.55;;;21.30;51.50;;;;;;5028691;27;88931;-64
2024/02/28 09:02:46;;;;;;;11.63;4.13;;;21.30;51.60;;;;;;5015272;28;89422;-64
2024/02/28 09:05:11;;;;;;;10.05;4.35;;;21.30;51.40;;;;;;5020898;28;86982;-63
2024/02/28 09:07:38;;;;;;;12.48;4.15;;;21.20;51.50;;;;;;5029365;27;86956;-63
2024/02/28 09:10:05;;;;;;;16.40;5.22;;;21.20;51.60;;;;;;5030252;28;87876;-63
2024/02/28 09:12:31;;;;;;;12.00;3.58;;;21.10;51.80;;;;;;5024783;27;88468;-63
2024/02/28 09:14:58;;;;;;;13.82;4.38;;;21.00;52.10;;;;;;5030283;27;87354;-63
2024/02/28 09:17:24;;;;;;;10.10;3.92;;;21.00;52.30;;;;;;5009497;28;87384;-63
2024/02/28 09:19:53;;;;;;;10.25;4.60;;;21.00;52.20;;;;;;5027404;28;88711;-63
2024/02/28 09:22:21;;;;;;;10.20;3.67;;;20.90;52.20;;;;;;5015957;28;90458;-64
2024/02/28 09:24:50;;;;;;;11.63;4.15;;;20.90;52.70;;;;;;5023093;27;88140;-63
2024/02/28 09:27:18;;;;;;;8.18;3.58;;;20.80;52.60;;;;;;5019560;27;87574;-63
2024/02/28 09:29:43;;;;;;;9.13;4.65;;;20.90;52.80;;;;;;5030486;27;88582;-64
2024/02/28 09:32:09;;;;;;;12.38;3.92;;;20.90;52.70;;;;;;5010572;28;88716;-63
2024/02/28 09:34:37;;;;;;;8.35;3.88;;;21.00;52.60;;;;;;5015761;27;87420;-63
2024/02/28 09:37:04;;;;;;;12.68;4.60;;;21.10;52.40;;;;;;5029036;27;87448;-64
2024/02/28 09:39:30;;;;;;;8.27;3.97;;;21.20;52.30;;;;;;5021613;27;88761;-64
2024/02/28 09:41:58;;;;;;;13.93;4.22;;;21.30;52.10;;;;;;5019086;27;87751;-62
2024/02/28 09:44:26;;;;;;;15.23;3.97;;;21.30;50.60;;;;;;5020266;27;87197;-64
2024/02/28 09:46:53;;;;;;;11.27;4.47;;;21.40;51.00;;;;;;5033189;27;87194;-64
2024/02/28 09:49:19;;;;;;;9.15;4.15;;;21.40;51.00;;;;;;5033117;28;90654;-63
2024/02/28 09:51:52;;;;;;;9.75;3.88;;;21.40;51.30;;;;;;5021653;27;88825;-62
2024/02/28 09:54:18;;;;;;;14.40;4.72;;;21.30;49.90;;;;;;5035902;27;87293;-63
2024/02/28 09:56:44;;;;;;;11.52;4.35;;;21.50;51.40;;;;;;5027385;27;87098;-63
2024/02/28 09:59:10;;;;;;;13.80;4.18;;;21.60;51.30;;;;;;5022155;27;88856;-64
2024/02/28 10:01:46;;;;;;;7.13;3.67;;;21.70;51.40;;;;;;5026163;27;88752;-63
2024/02/28 10:04:13;;;;;;;9.80;5.40;;;21.80;51.10;;;;;;5031450;28;87217;-64
2024/02/28 10:06:42;;;;;;;13.60;4.00;;;21.80;51.00;;;;;;5031822;27;86816;-63
2024/02/28 10:09:10;;;;;;;9.38;4.28;;;21.80;51.20;;;;;;5025505;27;87983;-63
2024/02/28 10:11:36;;;;;;;10.35;3.35;;;21.80;51.40;;;;;;5027528;27;88226;-63
2024/02/28 10:14:03;;;;;;;10.80;4.25;;;21.80;51.50;;;;;;5026454;27;87992;-63
2024/02/28 10:16:31;;;;;;;10.80;3.97;;;21.70;51.40;;;;;;5030344;27;87685;-64
2024/02/28 10:18:57;;;;;;;9.98;4.57;;;21.60;51.00;;;;;;5050120;27;88655;-63
2024/02/28 10:21:26;;;;;;;9.52;4.38;;;21.50;50.80;;;;;;5033169;27;87144;-64
2024/02/28 10:23:52;;;;;;;10.57;4.80;;;21.50;50.30;;;;;;5030160;28;87323;-63
2024/02/28 10:26:18;;;;;;;10.15;4.28;;;21.40;50.20;;;;;;5024373;27;87850;-67
2024/02/28 10:28:45;;;;;;;7.57;3.88;;;21.30;50.30;;;;;;5041023;27;88177;-65
2024/02/28 10:31:12;;;;;;;8.60;4.20;;;21.30;49.90;;;;;;5030250;28;88023;-64
2024/02/28 10:33:37;;;;;;;10.57;4.18;;;21.30;50.10;;;;;;5023647;27;86902;-66
2024/02/28 10:36:05;;;;;;;10.32;4.68;;;21.40;50.20;;;;;;5027395;27;87398;-64
2024/02/28 10:38:36;;;;;;;10.80;4.32;;;21.40;50.40;;;;;;5026769;27;89058;-65
2024/02/28 10:41:02;;;;;;;8.40;3.70;;;21.50;50.80;;;;;;5030484;27;89290;-64
2024/02/28 10:43:34;;;;;;;6.72;3.72;;;21.60;51.10;;;;;;5030961;27;87247;-64
2024/02/28 10:46:01;;;;;;;7.97;3.55;;;21.70;51.20;;;;;;5028566;28;87574;-64
2024/02/28 10:48:27;;;;;;;8.55;3.90;;;21.80;51.20;;;;;;5024855;27;87631;-64
2024/02/28 10:50:57;;;;;;;8.68;3.53;;;21.90;51.40;;;;;;5026721;27;88048;-64
2024/02/28 10:53:32;;;;;;;;;;;21.90;51.30;;;;;;5026020;27;87508;-66
2024/02/28 10:56:02;;;;;;;8.45;3.85;;;21.90;51.40;;;;;;5009481;28;87379;-64
2024/02/28 10:58:34;;;;;;;8.23;3.42;;;22.00;51.70;;;;;;5009338;28;89055;-65
2024/02/28 11:01:00;;;;;;;5.32;3.28;;;22.00;51.70;;;;;;5011330;28;87788;-63
2024/02/28 11:03:27;;;;;;;7.63;3.15;;;22.10;51.90;;;;;;5026473;28;88417;-64
2024/02/28 11:05:53;;;;;;;9.10;3.40;;;22.10;52.10;;;;;;5023544;27;87598;-64
2024/02/28 11:08:24;;;;;;;7.45;3.55;;;22.20;52.00;;;;;;5014637;28;88598;-64
2024/02/28 11:10:59;;;;;;;7.18;3.90;;;22.20;52.10;;;;;;5012899;28;87839;-64
2024/02/28 11:13:27;;;;;;;5.90;3.00;;;22.30;52.30;;;;;;5026197;27;87857;-64
2024/02/28 11:15:55;;;;;;;6.25;3.13;;;22.20;52.30;;;;;;5018074;27;87771;-64
2024/02/28 11:18:21;;;;;;;10.02;3.83;;;22.20;52.30;;;;;;5001061;28;88820;-63
2024/02/28 11:20:48;;;;;;;7.78;3.30;;;22.20;52.50;;;;;;5021186;27;87745;-65
2024/02/28 11:23:15;;;;;;;5.88;2.63;;;22.20;52.60;;;;;;5025647;27;87702;-63
2024/02/28 11:25:42;;;;;;;8.27;3.45;;;22.20;52.90;;;;;;5010790;28;90142;-63
2024/02/28 11:28:08;;;;;;;11.00;3.17;;;22.10;52.90;;;;;;5008703;28;89829;-68
2024/02/28 11:30:34;;;;;;;6.60;3.35;;;22.00;53.00;;;;;;5029089;27;88401;-67
2024/02/28 11:33:00;;;;;;;5.22;3.25;;;22.00;53.30;;;;;;5016153;27;87001;-65
2024/02/28 11:35:31;;;;;;;6.93;3.22;;;22.00;53.30;;;;;;5019184;27;87890;-65
2024/02/28 11:37:57;;;;;;;5.53;2.95;;;22.00;53.60;;;;;;5027257;27;88585;-65
2024/02/28 11:40:25;;;;;;;7.32;3.20;;;22.10;53.70;;;;;;5029395;27;88350;-66
2024/02/28 11:43:03;;;;;;;13.25;3.10;;;22.10;53.70;;;;;;5030050;28;87410;-64
2024/02/28 11:45:31;;;;;;;4.88;3.15;;;22.20;53.60;;;;;;5022583;27;87127;-64
2024/02/28 11:47:56;;;;;;;11.05;3.03;;;22.30;53.70;;;;;;5025968;27;87454;-63
2024/02/28 11:50:23;;;;;;;6.97;3.13;;;22.30;53.70;;;;;;5027706;27;89029;-63
2024/02/28 11:52:49;;;;;;;7.95;3.60;;;22.30;53.50;;;;;;5020840;28;88260;-67
2024/02/28 11:55:17;;;;;;;7.82;3.55;;;22.20;53.40;;;;;;5030489;27;87394;-64
2024/02/28 11:57:46;;;;;;;6.60;3.00;;;22.20;53.60;;;;;;5021245;27;89451;-65
2024/02/28 12:00:15;;;;;;;7.95;3.00;;;22.10;53.70;;;;;;5025236;27;90207;-64
2024/02/28 12:02:41;;;;;;;6.65;3.17;;;22.00;53.40;;;;;;5023183;27;87151;-63
2024/02/28 12:05:09;;;;;;;8.23;4.03;;;22.00;53.80;;;;;;5031148;27;87440;-63
2024/02/28 12:07:35;;;;;;;11.50;2.72;;;22.00;53.80;;;;;;5029737;27;87360;-64
2024/02/28 12:10:01;;;;;;;6.32;3.13;;;22.00;53.90;;;;;;5033137;28;86893;-64
2024/02/28 12:12:29;;;;;;;10.20;3.03;;;22.10;54.00;;;;;;5026868;27;87617;-63
2024/02/28 12:15:05;;;;;;;7.60;3.60;;;22.20;53.90;;;;;;5027838;27;87325;-63
2024/02/28 12:17:31;;;;;;;5.80;3.05;;;22.30;53.90;;;;;;5026958;27;89450;-63
2024/02/28 12:20:00;;;;;;;5.97;3.05;;;22.30;53.90;;;;;;5024877;27;87930;-64
2024/02/28 12:22:26;;;;;;;7.35;2.55;;;22.20;53.40;;;;;;5028817;27;87499;-63
2024/02/28 12:24:52;;;;;;;7.80;2.67;;;22.20;53.40;;;;;;5030349;28;87496;-63
2024/02/28 12:27:18;;;;;;;6.03;2.85;;;22.20;53.60;;;;;;5028271;27;88040;-64
2024/02/28 12:29:44;;;;;;;7.50;3.03;;;22.10;53.40;;;;;;5029828;27;87384;-63
2024/02/28 12:32:11;;;;;;;7.65;2.67;;;22.10;53.40;;;;;;5027093;27;86950;-63
2024/02/28 12:34:38;;;;;;;5.50;2.72;;;22.00;53.40;;;;;;5027600;27;86273;-64
2024/02/28 12:37:06;;;;;;;4.93;2.90;;;22.00;53.80;;;;;;5045567;27;88928;-63
2024/02/28 12:39:34;;;;;;;9.40;3.17;;;22.00;53.70;;;;;;5027646;27;87806;-63
2024/02/28 12:42:00;;;;;;;6.30;3.25;;;22.10;53.60;;;;;;5028474;27;88242;-63
2024/02/28 12:44:26;;;;;;;8.82;2.95;;;22.10;53.80;;;;;;5025527;28;87197;-68
2024/02/28 12:46:52;;;;;;;6.13;2.45;;;22.20;53.80;;;;;;5026402;27;88085;-68
2024/02/28 12:49:19;;;;;;;6.40;2.80;;;22.20;53.70;;;;;;5028387;27;87515;-67